New Hyde Park, New York
Current Conditions -  °F | °C
As of 7:51 AM on Saturday 22 Nov 2014 (Local Time) from KJFK Reporting Station
Few Clouds Few Clouds  
Wind Chill: 21°   Ceiling: Unl
Heat Index: 30°   Visibility: 10mi
Dew Point: 13°   Wind: 10mph
Humidity: 49%   Direction: 260°W
Pressure: 30.51"   Gusts: NA
Location:  40.73°N, 73.68°W
Report Text: KJFK 221251Z 26009KT 10SM FEW260 M01/M11 A3051 RMK AO2 SLP330 T10111106
Loading
Personal Weather Stations






























Interactive Weather Map New forecast layout! Learn more

10-Day Weather Forecast

Advertisements
Track Severe Weather on mobile